sensor_id;sensor_type;location;lat;lon;timestamp;temperature;humidity
11617;DHT22;5864;52.998;9.068;2023-05-07T00:02:13;10.30;99.90
11617;DHT22;5864;52.998;9.068;2023-05-07T00:04:59;9.90;99.90
11617;DHT22;5864;52.998;9.068;2023-05-07T00:07:46;9.90;99.90
11617;DHT22;5864;52.998;9.068;2023-05-07T00:10:33;9.80;99.90
11617;DHT22;5864;52.998;9.068;2023-05-07T00:13:19;9.70;99.90
11617;DHT22;5864;52.998;9.068;2023-05-07T00:16:05;9.60;99.90
11617;DHT22;5864;52.998;9.068;2023-05-07T00:18:52;9.60;99.90
11617;DHT22;5864;52.998;9.068;2023-05-07T00:21:37;9.50;99.90
11617;DHT22;5864;52.998;9.068;2023-05-07T00:24:24;9.50;99.90
11617;DHT22;5864;52.998;9.068;2023-05-07T00:27:11;9.50;99.90
11617;DHT22;5864;52.998;9.068;2023-05-07T00:29:56;11.50;99.90
11617;DHT22;5864;52.998;9.068;2023-05-07T00:32:42;9.50;99.90
11617;DHT22;5864;52.998;9.068;2023-05-07T00:35:29;9.50;99.90
11617;DHT22;5864;52.998;9.068;2023-05-07T00:38:15;9.50;99.90
11617;DHT22;5864;52.998;9.068;2023-05-07T00:41:00;10.90;99.90
11617;DHT22;5864;52.998;9.068;2023-05-07T00:43:49;9.40;99.90
11617;DHT22;5864;52.998;9.068;2023-05-07T00:46:35;9.50;99.90
11617;DHT22;5864;52.998;9.068;2023-05-07T00:49:21;9.60;99.90
11617;DHT22;5864;52.998;9.068;2023-05-07T00:52:07;9.50;99.90
11617;DHT22;5864;52.998;9.068;2023-05-07T00:54:54;9.50;99.90
11617;DHT22;5864;52.998;9.068;2023-05-07T00:57:41;9.50;99.90
11617;DHT22;5864;52.998;9.068;2023-05-07T01:00:28;10.70;99.90
11617;DHT22;5864;52.998;9.068;2023-05-07T01:03:14;9.60;99.90
11617;DHT22;5864;52.998;9.068;2023-05-07T01:06:01;10.20;99.90
11617;DHT22;5864;52.998;9.068;2023-05-07T01:08:47;9.50;99.90
11617;DHT22;5864;52.998;9.068;2023-05-07T01:11:34;9.50;99.90
11617;DHT22;5864;52.998;9.068;2023-05-07T01:14:20;9.50;99.90
11617;DHT22;5864;52.998;9.068;2023-05-07T01:17:07;9.50;99.90
11617;DHT22;5864;52.998;9.068;2023-05-07T01:19:53;9.40;99.90
11617;DHT22;5864;52.998;9.068;2023-05-07T01:22:41;9.50;99.90
11617;DHT22;5864;52.998;9.068;2023-05-07T01:25:28;9.50;99.90
11617;DHT22;5864;52.998;9.068;2023-05-07T01:28:14;9.50;99.90
11617;DHT22;5864;52.998;9.068;2023-05-07T01:31:02;9.60;99.90
11617;DHT22;5864;52.998;9.068;2023-05-07T01:33:48;9.50;99.90
11617;DHT22;5864;52.998;9.068;2023-05-07T01:36:37;11.40;99.90
11617;DHT22;5864;52.998;9.068;2023-05-07T01:39:27;9.30;99.90
11617;DHT22;5864;52.998;9.068;2023-05-07T01:42:13;9.20;99.90
11617;DHT22;5864;52.998;9.068;2023-05-07T01:45:00;9.30;99.90
11617;DHT22;5864;52.998;9.068;2023-05-07T01:47:46;9.30;99.90
11617;DHT22;5864;52.998;9.068;2023-05-07T01:50:32;9.30;99.90
11617;DHT22;5864;52.998;9.068;2023-05-07T01:53:18;10.60;99.90
11617;DHT22;5864;52.998;9.068;2023-05-07T01:56:06;9.10;99.90
11617;DHT22;5864;52.998;9.068;2023-05-07T01:58:52;9.10;99.90
11617;DHT22;5864;52.998;9.068;2023-05-07T02:01:37;9.10;99.90
11617;DHT22;5864;52.998;9.068;2023-05-07T02:04:23;11.00;99.90
11617;DHT22;5864;52.998;9.068;2023-05-07T02:07:09;9.10;99.90
11617;DHT22;5864;52.998;9.068;2023-05-07T02:09:55;9.00;99.90
11617;DHT22;5864;52.998;9.068;2023-05-07T02:12:43;9.00;99.90
11617;DHT22;5864;52.998;9.068;2023-05-07T02:15:28;10.60;99.90
11617;DHT22;5864;52.998;9.068;2023-05-07T02:18:15;9.00;99.90
11617;DHT22;5864;52.998;9.068;2023-05-07T02:21:01;9.10;99.90
11617;DHT22;5864;52.998;9.068;2023-05-07T02:23:46;9.00;99.90
11617;DHT22;5864;52.998;9.068;2023-05-07T02:26:32;9.00;99.90
11617;DHT22;5864;52.998;9.068;2023-05-07T02:29:19;9.10;99.90
11617;DHT22;5864;52.998;9.068;2023-05-07T02:32:04;9.10;99.90
11617;DHT22;5864;52.998;9.068;2023-05-07T02:34:50;10.10;99.90
11617;DHT22;5864;52.998;9.068;2023-05-07T02:37:36;9.70;99.90
11617;DHT22;5864;52.998;9.068;2023-05-07T02:40:22;9.10;99.90
11617;DHT22;5864;52.998;9.068;2023-05-07T02:43:08;9.10;99.90
11617;DHT22;5864;52.998;9.068;2023-05-07T02:46:02;9.50;99.90
11617;DHT22;5864;52.998;9.068;2023-05-07T02:48:48;9.40;99.90
11617;DHT22;5864;52.998;9.068;2023-05-07T02:51:33;9.20;99.90
11617;DHT22;5864;52.998;9.068;2023-05-07T02:54:19;9.20;99.90
11617;DHT22;5864;52.998;9.068;2023-05-07T02:57:04;10.30;99.90
11617;DHT22;5864;52.998;9.068;2023-05-07T02:59:50;10.40;99.90
11617;DHT22;5864;52.998;9.068;2023-05-07T03:02:37;9.40;99.90
11617;DHT22;5864;52.998;9.068;2023-05-07T03:05:22;9.00;99.90
11617;DHT22;5864;52.998;9.068;2023-05-07T03:08:09;11.10;99.90
11617;DHT22;5864;52.998;9.068;2023-05-07T03:10:55;9.00;99.90
11617;DHT22;5864;52.998;9.068;2023-05-07T03:13:41;9.00;99.90
11617;DHT22;5864;52.998;9.068;2023-05-07T03:16:27;9.00;99.90
11617;DHT22;5864;52.998;9.068;2023-05-07T03:19:14;9.00;99.90
11617;DHT22;5864;52.998;9.068;2023-05-07T03:21:59;8.90;99.90
11617;DHT22;5864;52.998;9.068;2023-05-07T03:24:45;9.00;99.90
11617;DHT22;5864;52.998;9.068;2023-05-07T03:27:31;9.00;99.90
11617;DHT22;5864;52.998;9.068;2023-05-07T03:30:16;9.00;99.90
11617;DHT22;5864;52.998;9.068;2023-05-07T03:33:02;9.00;99.90
11617;DHT22;5864;52.998;9.068;2023-05-07T03:35:50;9.00;99.90
11617;DHT22;5864;52.998;9.068;2023-05-07T03:38:35;9.00;99.90
11617;DHT22;5864;52.998;9.068;2023-05-07T03:41:21;9.00;99.90
11617;DHT22;5864;52.998;9.068;2023-05-07T03:44:07;9.00;99.90
11617;DHT22;5864;52.998;9.068;2023-05-07T03:46:53;9.10;99.90
11617;DHT22;5864;52.998;9.068;2023-05-07T03:49:39;9.10;99.90
11617;DHT22;5864;52.998;9.068;2023-05-07T03:52:27;9.10;99.90
11617;DHT22;5864;52.998;9.068;2023-05-07T03:55:12;9.10;99.90
11617;DHT22;5864;52.998;9.068;2023-05-07T03:57:58;9.10;99.90
11617;DHT22;5864;52.998;9.068;2023-05-07T04:00:44;9.10;99.90
11617;DHT22;5864;52.998;9.068;2023-05-07T04:03:30;9.20;99.90
11617;DHT22;5864;52.998;9.068;2023-05-07T04:06:16;9.10;99.90
11617;DHT22;5864;52.998;9.068;2023-05-07T04:09:03;9.10;99.90
11617;DHT22;5864;52.998;9.068;2023-05-07T04:11:48;9.90;99.90
11617;DHT22;5864;52.998;9.068;2023-05-07T04:14:34;9.20;99.90
11617;DHT22;5864;52.998;9.068;2023-05-07T04:17:20;9.20;99.90
11617;DHT22;5864;52.998;9.068;2023-05-07T04:20:08;10.30;99.90
11617;DHT22;5864;52.998;9.068;2023-05-07T04:22:55;9.10;99.90
11617;DHT22;5864;52.998;9.068;2023-05-07T04:25:42;9.20;99.90
11617;DHT22;5864;52.998;9.068;2023-05-07T04:28:28;9.10;99.90
11617;DHT22;5864;52.998;9.068;2023-05-07T04:31:14;9.10;99.90
11617;DHT22;5864;52.998;9.068;2023-05-07T04:34:00;9.20;99.90
11617;DHT22;5864;52.998;9.068;2023-05-07T04:36:46;9.20;99.90
11617;DHT22;5864;52.998;9.068;2023-05-07T04:39:32;9.20;99.90
11617;DHT22;5864;52.998;9.068;2023-05-07T04:42:20;9.20;99.90
11617;DHT22;5864;52.998;9.068;2023-05-07T04:45:07;9.90;99.90
11617;DHT22;5864;52.998;9.068;2023-05-07T04:47:54;9.30;99.90
11617;DHT22;5864;52.998;9.068;2023-05-07T04:50:40;9.30;99.90
11617;DHT22;5864;52.998;9.068;2023-05-07T04:53:25;9.70;99.90
11617;DHT22;5864;52.998;9.068;2023-05-07T04:56:11;9.30;99.90
11617;DHT22;5864;52.998;9.068;2023-05-07T04:58:58;9.40;99.90
11617;DHT22;5864;52.998;9.068;2023-05-07T05:01:43;9.30;99.90
11617;DHT22;5864;52.998;9.068;2023-05-07T05:04:29;9.30;99.90
11617;DHT22;5864;52.998;9.068;2023-05-07T05:07:14;9.30;99.90
11617;DHT22;5864;52.998;9.068;2023-05-07T05:10:01;9.30;99.90
11617;DHT22;5864;52.998;9.068;2023-05-07T05:12:47;10.70;99.90
11617;DHT22;5864;52.998;9.068;2023-05-07T05:15:34;9.30;99.90
11617;DHT22;5864;52.998;9.068;2023-05-07T05:18:20;9.30;99.90
11617;DHT22;5864;52.998;9.068;2023-05-07T05:21:06;9.90;99.90
11617;DHT22;5864;52.998;9.068;2023-05-07T05:23:52;9.40;99.90
11617;DHT22;5864;52.998;9.068;2023-05-07T05:26:38;9.30;99.90
11617;DHT22;5864;52.998;9.068;2023-05-07T05:29:23;9.30;99.90
11617;DHT22;5864;52.998;9.068;2023-05-07T05:32:10;9.50;99.90
11617;DHT22;5864;52.998;9.068;2023-05-07T05:34:56;9.50;99.90
11617;DHT22;5864;52.998;9.068;2023-05-07T05:37:42;9.90;99.90
11617;DHT22;5864;52.998;9.068;2023-05-07T05:40:27;10.10;99.90
11617;DHT22;5864;52.998;9.068;2023-05-07T05:43:13;9.40;99.90
11617;DHT22;5864;52.998;9.068;2023-05-07T05:45:59;9.50;99.90
11617;DHT22;5864;52.998;9.068;2023-05-07T05:48:46;9.60;99.90
11617;DHT22;5864;52.998;9.068;2023-05-07T05:51:32;9.70;99.90
11617;DHT22;5864;52.998;9.068;2023-05-07T05:54:18;9.60;99.90
11617;DHT22;5864;52.998;9.068;2023-05-07T05:57:04;9.50;99.90
11617;DHT22;5864;52.998;9.068;2023-05-07T05:59:50;10.80;99.90
11617;DHT22;5864;52.998;9.068;2023-05-07T06:02:36;9.50;99.90
11617;DHT22;5864;52.998;9.068;2023-05-07T06:05:23;9.60;99.90
11617;DHT22;5864;52.998;9.068;2023-05-07T06:08:08;9.50;99.90
11617;DHT22;5864;52.998;9.068;2023-05-07T06:10:54;9.40;99.90
11617;DHT22;5864;52.998;9.068;2023-05-07T06:13:40;9.40;99.90
11617;DHT22;5864;52.998;9.068;2023-05-07T06:16:26;9.70;99.90
11617;DHT22;5864;52.998;9.068;2023-05-07T06:19:12;10.20;99.90
11617;DHT22;5864;52.998;9.068;2023-05-07T06:21:59;9.70;99.90
11617;DHT22;5864;52.998;9.068;2023-05-07T06:24:45;9.50;99.90
11617;DHT22;5864;52.998;9.068;2023-05-07T06:27:31;9.50;99.90
11617;DHT22;5864;52.998;9.068;2023-05-07T06:30:17;9.50;99.90
11617;DHT22;5864;52.998;9.068;2023-05-07T06:33:02;10.40;99.90
11617;DHT22;5864;52.998;9.068;2023-05-07T06:35:48;9.60;99.90
11617;DHT22;5864;52.998;9.068;2023-05-07T06:38:36;9.60;99.90
11617;DHT22;5864;52.998;9.068;2023-05-07T06:41:21;9.70;99.90
11617;DHT22;5864;52.998;9.068;2023-05-07T06:44:07;9.70;99.90
11617;DHT22;5864;52.998;9.068;2023-05-07T06:46:53;9.60;99.90
11617;DHT22;5864;52.998;9.068;2023-05-07T06:49:39;9.60;99.90
11617;DHT22;5864;52.998;9.068;2023-05-07T06:52:25;10.30;99.90
11617;DHT22;5864;52.998;9.068;2023-05-07T06:55:12;9.70;99.90
11617;DHT22;5864;52.998;9.068;2023-05-07T06:57:57;9.70;99.90
11617;DHT22;5864;52.998;9.068;2023-05-07T07:00:45;9.70;99.90
11617;DHT22;5864;52.998;9.068;2023-05-07T07:03:31;9.70;99.90
11617;DHT22;5864;52.998;9.068;2023-05-07T07:06:17;9.80;99.90
11617;DHT22;5864;52.998;9.068;2023-05-07T07:09:03;10.00;99.90
11617;DHT22;5864;52.998;9.068;2023-05-07T07:11:50;9.90;99.90
11617;DHT22;5864;52.998;9.068;2023-05-07T07:14:35;10.10;99.90
11617;DHT22;5864;52.998;9.068;2023-05-07T07:17:20;10.00;99.90
11617;DHT22;5864;52.998;9.068;2023-05-07T07:20:07;10.00;99.90
11617;DHT22;5864;52.998;9.068;2023-05-07T07:22:53;10.10;99.90
11617;DHT22;5864;52.998;9.068;2023-05-07T07:25:39;10.20;99.90
11617;DHT22;5864;52.998;9.068;2023-05-07T07:28:26;10.10;99.90
11617;DHT22;5864;52.998;9.068;2023-05-07T07:31:11;10.30;99.90
11617;DHT22;5864;52.998;9.068;2023-05-07T07:33:57;10.30;99.90
11617;DHT22;5864;52.998;9.068;2023-05-07T07:36:43;10.30;99.90
11617;DHT22;5864;52.998;9.068;2023-05-07T07:39:28;10.50;99.90
11617;DHT22;5864;52.998;9.068;2023-05-07T07:42:14;11.50;99.90
11617;DHT22;5864;52.998;9.068;2023-05-07T07:45:01;10.60;99.90
11617;DHT22;5864;52.998;9.068;2023-05-07T07:47:47;10.70;99.90
11617;DHT22;5864;52.998;9.068;2023-05-07T07:50:33;11.40;50.30
11617;DHT22;5864;52.998;9.068;2023-05-07T07:53:19;10.70;36.80
11617;DHT22;5864;52.998;9.068;2023-05-07T07:56:05;10.70;55.60
11617;DHT22;5864;52.998;9.068;2023-05-07T07:58:51;10.60;28.50
11617;DHT22;5864;52.998;9.068;2023-05-07T08:01:38;10.60;67.60
11617;DHT22;5864;52.998;9.068;2023-05-07T08:04:23;10.70;54.90
11617;DHT22;5864;52.998;9.068;2023-05-07T08:07:09;10.80;42.20
11617;DHT22;5864;52.998;9.068;2023-05-07T08:09:55;11.00;28.90
11617;DHT22;5864;52.998;9.068;2023-05-07T08:12:40;11.00;1.00
11617;DHT22;5864;52.998;9.068;2023-05-07T08:15:26;11.10;1.00
11617;DHT22;5864;52.998;9.068;2023-05-07T08:18:13;11.10;1.00
11617;DHT22;5864;52.998;9.068;2023-05-07T08:20:59;11.00;1.00
11617;DHT22;5864;52.998;9.068;2023-05-07T08:23:44;11.10;99.90
11617;DHT22;5864;52.998;9.068;2023-05-07T08:26:30;11.20;1.00
11617;DHT22;5864;52.998;9.068;2023-05-07T08:29:15;11.20;99.90
11617;DHT22;5864;52.998;9.068;2023-05-07T08:32:01;11.50;99.90
11617;DHT22;5864;52.998;9.068;2023-05-07T08:34:48;11.70;99.90
11617;DHT22;5864;52.998;9.068;2023-05-07T08:37:33;11.00;1.00
11617;DHT22;5864;52.998;9.068;2023-05-07T08:40:20;11.60;1.00
11617;DHT22;5864;52.998;9.068;2023-05-07T08:43:08;11.50;99.90
11617;DHT22;5864;52.998;9.068;2023-05-07T08:46:00;11.70;99.90
11617;DHT22;5864;52.998;9.068;2023-05-07T08:48:48;11.70;1.00
11617;DHT22;5864;52.998;9.068;2023-05-07T08:51:36;11.80;99.90
11617;DHT22;5864;52.998;9.068;2023-05-07T08:54:23;11.80;99.90
11617;DHT22;5864;52.998;9.068;2023-05-07T08:57:08;11.80;99.90
11617;DHT22;5864;52.998;9.068;2023-05-07T08:59:54;11.80;99.90
11617;DHT22;5864;52.998;9.068;2023-05-07T09:02:39;12.00;99.90
11617;DHT22;5864;52.998;9.068;2023-05-07T09:05:25;12.10;99.90
11617;DHT22;5864;52.998;9.068;2023-05-07T09:08:14;11.90;99.90
11617;DHT22;5864;52.998;9.068;2023-05-07T09:11:00;12.00;21.80
11617;DHT22;5864;52.998;9.068;2023-05-07T09:13:45;12.00;99.90
11617;DHT22;5864;52.998;9.068;2023-05-07T09:16:31;12.20;99.90
11617;DHT22;5864;52.998;9.068;2023-05-07T09:19:22;12.00;99.90
11617;DHT22;5864;52.998;9.068;2023-05-07T09:22:08;11.90;99.90
11617;DHT22;5864;52.998;9.068;2023-05-07T09:24:55;11.90;99.90
11617;DHT22;5864;52.998;9.068;2023-05-07T09:27:41;11.90;99.90
11617;DHT22;5864;52.998;9.068;2023-05-07T09:30:28;11.90;99.90
11617;DHT22;5864;52.998;9.068;2023-05-07T09:33:14;11.90;99.90
11617;DHT22;5864;52.998;9.068;2023-05-07T09:36:02;11.80;99.90
11617;DHT22;5864;52.998;9.068;2023-05-07T09:38:49;12.00;99.90
11617;DHT22;5864;52.998;9.068;2023-05-07T09:41:45;12.20;99.90
11617;DHT22;5864;52.998;9.068;2023-05-07T09:44:31;12.20;99.90
11617;DHT22;5864;52.998;9.068;2023-05-07T09:47:19;12.30;99.90
11617;DHT22;5864;52.998;9.068;2023-05-07T09:50:08;12.30;99.90
11617;DHT22;5864;52.998;9.068;2023-05-07T09:52:56;12.50;99.90
11617;DHT22;5864;52.998;9.068;2023-05-07T09:55:43;12.30;99.90
11617;DHT22;5864;52.998;9.068;2023-05-07T09:58:30;12.30;99.90
11617;DHT22;5864;52.998;9.068;2023-05-07T10:01:17;12.30;99.90
11617;DHT22;5864;52.998;9.068;2023-05-07T10:04:06;12.50;99.90
11617;DHT22;5864;52.998;9.068;2023-05-07T10:06:53;12.70;99.90
11617;DHT22;5864;52.998;9.068;2023-05-07T10:09:39;12.80;99.90
11617;DHT22;5864;52.998;9.068;2023-05-07T10:12:28;12.70;99.90
11617;DHT22;5864;52.998;9.068;2023-05-07T10:15:15;12.80;99.90
11617;DHT22;5864;52.998;9.068;2023-05-07T10:18:02;12.80;99.90
11617;DHT22;5864;52.998;9.068;2023-05-07T10:20:50;12.90;99.90
11617;DHT22;5864;52.998;9.068;2023-05-07T10:23:37;13.00;99.90
11617;DHT22;5864;52.998;9.068;2023-05-07T10:26:25;13.10;99.90
11617;DHT22;5864;52.998;9.068;2023-05-07T10:29:16;13.10;99.90
11617;DHT22;5864;52.998;9.068;2023-05-07T10:32:19;13.20;99.90
11617;DHT22;5864;52.998;9.068;2023-05-07T10:35:14;13.30;99.90
11617;DHT22;5864;52.998;9.068;2023-05-07T10:38:01;13.70;99.90
11617;DHT22;5864;52.998;9.068;2023-05-07T10:40:47;13.80;99.90
11617;DHT22;5864;52.998;9.068;2023-05-07T10:43:43;13.80;99.90
11617;DHT22;5864;52.998;9.068;2023-05-07T10:46:29;13.80;99.90
11617;DHT22;5864;52.998;9.068;2023-05-07T10:49:16;13.70;99.90
11617;DHT22;5864;52.998;9.068;2023-05-07T10:52:15;13.70;99.90
11617;DHT22;5864;52.998;9.068;2023-05-07T10:55:20;13.70;99.90
11617;DHT22;5864;52.998;9.068;2023-05-07T10:58:26;13.90;99.90
11617;DHT22;5864;52.998;9.068;2023-05-07T11:01:11;13.90;99.90
11617;DHT22;5864;52.998;9.068;2023-05-07T11:04:13;14.00;99.90
11617;DHT22;5864;52.998;9.068;2023-05-07T11:07:25;14.00;99.90
11617;DHT22;5864;52.998;9.068;2023-05-07T11:10:11;14.10;99.90
11617;DHT22;5864;52.998;9.068;2023-05-07T11:12:57;14.20;99.90
11617;DHT22;5864;52.998;9.068;2023-05-07T11:15:44;14.40;99.90
11617;DHT22;5864;52.998;9.068;2023-05-07T11:18:46;14.60;99.40
11617;DHT22;5864;52.998;9.068;2023-05-07T11:21:33;14.60;99.10
11617;DHT22;5864;52.998;9.068;2023-05-07T11:24:20;14.70;99.90
11617;DHT22;5864;52.998;9.068;2023-05-07T11:27:06;14.90;96.20
11617;DHT22;5864;52.998;9.068;2023-05-07T11:29:52;15.00;97.20
11617;DHT22;5864;52.998;9.068;2023-05-07T11:32:38;15.10;86.80
11617;DHT22;5864;52.998;9.068;2023-05-07T11:35:24;15.10;91.40
11617;DHT22;5864;52.998;9.068;2023-05-07T11:38:10;15.20;90.00
11617;DHT22;5864;52.998;9.068;2023-05-07T11:40:59;15.20;86.00
11617;DHT22;5864;52.998;9.068;2023-05-07T11:43:57;15.00;93.50
11617;DHT22;5864;52.998;9.068;2023-05-07T11:46:44;15.10;90.50
11617;DHT22;5864;52.998;9.068;2023-05-07T11:49:30;15.10;96.40
11617;DHT22;5864;52.998;9.068;2023-05-07T11:52:15;15.20;91.40
11617;DHT22;5864;52.998;9.068;2023-05-07T11:55:02;15.20;96.10
11617;DHT22;5864;52.998;9.068;2023-05-07T11:57:50;15.50;99.00
11617;DHT22;5864;52.998;9.068;2023-05-07T12:00:35;15.40;89.80
11617;DHT22;5864;52.998;9.068;2023-05-07T12:03:21;15.40;84.70
11617;DHT22;5864;52.998;9.068;2023-05-07T12:06:07;15.30;92.50
11617;DHT22;5864;52.998;9.068;2023-05-07T12:08:53;15.60;87.00
11617;DHT22;5864;52.998;9.068;2023-05-07T12:11:39;15.70;77.80
11617;DHT22;5864;52.998;9.068;2023-05-07T12:17:16;15.90;81.90
11617;DHT22;5864;52.998;9.068;2023-05-07T12:20:02;15.70;78.10
11617;DHT22;5864;52.998;9.068;2023-05-07T12:22:48;16.20;80.30
11617;DHT22;5864;52.998;9.068;2023-05-07T12:25:37;16.30;72.20
11617;DHT22;5864;52.998;9.068;2023-05-07T12:28:23;16.40;74.10
11617;DHT22;5864;52.998;9.068;2023-05-07T12:31:10;16.30;76.10
11617;DHT22;5864;52.998;9.068;2023-05-07T12:33:56;16.30;64.70
11617;DHT22;5864;52.998;9.068;2023-05-07T12:36:42;16.20;64.30
11617;DHT22;5864;52.998;9.068;2023-05-07T12:39:27;16.30;62.10
11617;DHT22;5864;52.998;9.068;2023-05-07T12:42:15;16.10;1.00
11617;DHT22;5864;52.998;9.068;2023-05-07T12:45:07;16.10;42.50
11617;DHT22;5864;52.998;9.068;2023-05-07T12:47:55;16.00;1.00
11617;DHT22;5864;52.998;9.068;2023-05-07T12:50:40;16.00;54.80
11617;DHT22;5864;52.998;9.068;2023-05-07T12:53:28;16.00;1.00
11617;DHT22;5864;52.998;9.068;2023-05-07T12:56:15;16.10;99.90
11617;DHT22;5864;52.998;9.068;2023-05-07T12:59:01;15.90;1.00
11617;DHT22;5864;52.998;9.068;2023-05-07T13:01:47;15.90;1.00
11617;DHT22;5864;52.998;9.068;2023-05-07T13:04:34;16.00;1.00
11617;DHT22;5864;52.998;9.068;2023-05-07T13:07:24;16.10;1.00
11617;DHT22;5864;52.998;9.068;2023-05-07T13:10:10;16.20;99.90
11617;DHT22;5864;52.998;9.068;2023-05-07T13:12:55;16.20;1.00
11617;DHT22;5864;52.998;9.068;2023-05-07T13:18:29;16.00;1.00
11617;DHT22;5864;52.998;9.068;2023-05-07T13:21:17;16.00;1.00
11617;DHT22;5864;52.998;9.068;2023-05-07T13:24:02;16.20;1.00
11617;DHT22;5864;52.998;9.068;2023-05-07T13:26:48;16.10;1.00
11617;DHT22;5864;52.998;9.068;2023-05-07T13:29:34;16.10;1.00
11617;DHT22;5864;52.998;9.068;2023-05-07T13:32:20;16.00;40.30
11617;DHT22;5864;52.998;9.068;2023-05-07T13:35:06;16.00;99.90
11617;DHT22;5864;52.998;9.068;2023-05-07T13:37:54;16.10;1.00
11617;DHT22;5864;52.998;9.068;2023-05-07T13:40:40;16.20;1.00
11617;DHT22;5864;52.998;9.068;2023-05-07T13:43:26;16.60;90.00
11617;DHT22;5864;52.998;9.068;2023-05-07T13:46:11;17.00;63.10
11617;DHT22;5864;52.998;9.068;2023-05-07T13:48:57;17.30;48.90
11617;DHT22;5864;52.998;9.068;2023-05-07T13:51:42;17.30;57.00
11617;DHT22;5864;52.998;9.068;2023-05-07T13:54:30;17.40;49.30
11617;DHT22;5864;52.998;9.068;2023-05-07T13:57:15;17.10;53.10
11617;DHT22;5864;52.998;9.068;2023-05-07T14:00:01;17.00;52.40
11617;DHT22;5864;52.998;9.068;2023-05-07T14:02:47;17.30;48.20
11617;DHT22;5864;52.998;9.068;2023-05-07T14:05:33;17.10;49.20
11617;DHT22;5864;52.998;9.068;2023-05-07T14:08:19;16.80;47.70
11617;DHT22;5864;52.998;9.068;2023-05-07T14:11:06;16.90;69.70
11617;DHT22;5864;52.998;9.068;2023-05-07T14:13:51;16.90;54.40
11617;DHT22;5864;52.998;9.068;2023-05-07T14:16:37;16.70;54.90
11617;DHT22;5864;52.998;9.068;2023-05-07T14:19:22;17.00;57.40
11617;DHT22;5864;52.998;9.068;2023-05-07T14:22:08;17.10;50.80
11617;DHT22;5864;52.998;9.068;2023-05-07T14:24:53;17.40;54.20
11617;DHT22;5864;52.998;9.068;2023-05-07T14:27:40;17.50;56.40
11617;DHT22;5864;52.998;9.068;2023-05-07T14:30:26;17.80;53.50
11617;DHT22;5864;52.998;9.068;2023-05-07T14:33:12;17.50;42.00
11617;DHT22;5864;52.998;9.068;2023-05-07T14:35:58;17.10;41.70
11617;DHT22;5864;52.998;9.068;2023-05-07T14:38:43;16.80;48.30
11617;DHT22;5864;52.998;9.068;2023-05-07T14:41:29;16.70;57.10
11617;DHT22;5864;52.998;9.068;2023-05-07T14:44:17;17.00;54.90
11617;DHT22;5864;52.998;9.068;2023-05-07T14:47:03;16.90;49.50
11617;DHT22;5864;52.998;9.068;2023-05-07T14:49:48;16.40;49.90
11617;DHT22;5864;52.998;9.068;2023-05-07T14:52:34;16.30;51.20
11617;DHT22;5864;52.998;9.068;2023-05-07T14:55:20;16.30;52.90
11617;DHT22;5864;52.998;9.068;2023-05-07T14:58:05;16.50;53.40
11617;DHT22;5864;52.998;9.068;2023-05-07T15:00:52;16.60;49.40
11617;DHT22;5864;52.998;9.068;2023-05-07T15:03:38;16.70;52.60
11617;DHT22;5864;52.998;9.068;2023-05-07T15:06:24;16.50;47.70
11617;DHT22;5864;52.998;9.068;2023-05-07T15:09:10;16.10;62.00
11617;DHT22;5864;52.998;9.068;2023-05-07T15:11:56;16.20;54.20
11617;DHT22;5864;52.998;9.068;2023-05-07T15:14:42;16.30;53.50
11617;DHT22;5864;52.998;9.068;2023-05-07T15:17:29;16.30;56.00
11617;DHT22;5864;52.998;9.068;2023-05-07T15:20:14;16.20;57.60
11617;DHT22;5864;52.998;9.068;2023-05-07T15:23:00;16.30;58.50
11617;DHT22;5864;52.998;9.068;2023-05-07T15:25:46;16.30;56.80
11617;DHT22;5864;52.998;9.068;2023-05-07T15:28:32;16.30;56.30
11617;DHT22;5864;52.998;9.068;2023-05-07T15:31:18;16.20;56.30
11617;DHT22;5864;52.998;9.068;2023-05-07T15:34:05;16.20;57.30
11617;DHT22;5864;52.998;9.068;2023-05-07T15:36:50;16.10;59.00
11617;DHT22;5864;52.998;9.068;2023-05-07T15:39:36;16.00;57.10
11617;DHT22;5864;52.998;9.068;2023-05-07T15:42:22;15.90;99.90
11617;DHT22;5864;52.998;9.068;2023-05-07T15:45:09;16.10;6.00
11617;DHT22;5864;52.998;9.068;2023-05-07T15:47:54;16.00;99.90
11617;DHT22;5864;52.998;9.068;2023-05-07T15:50:41;16.20;1.00
11617;DHT22;5864;52.998;9.068;2023-05-07T15:53:27;16.40;56.60
11617;DHT22;5864;52.998;9.068;2023-05-07T15:56:12;16.40;57.10
11617;DHT22;5864;52.998;9.068;2023-05-07T15:58:58;16.30;56.70
11617;DHT22;5864;52.998;9.068;2023-05-07T16:01:43;16.30;55.40
11617;DHT22;5864;52.998;9.068;2023-05-07T16:04:28;16.40;58.30
11617;DHT22;5864;52.998;9.068;2023-05-07T16:07:15;16.50;49.60
11617;DHT22;5864;52.998;9.068;2023-05-07T16:10:02;16.50;57.10
11617;DHT22;5864;52.998;9.068;2023-05-07T16:12:48;16.50;55.80
11617;DHT22;5864;52.998;9.068;2023-05-07T16:15:34;16.40;59.50
11617;DHT22;5864;52.998;9.068;2023-05-07T16:18:20;16.50;55.50
11617;DHT22;5864;52.998;9.068;2023-05-07T16:21:06;16.70;57.00
11617;DHT22;5864;52.998;9.068;2023-05-07T16:23:53;16.60;59.40
11617;DHT22;5864;52.998;9.068;2023-05-07T16:26:38;16.50;54.20
11617;DHT22;5864;52.998;9.068;2023-05-07T16:29:24;16.50;63.70
11617;DHT22;5864;52.998;9.068;2023-05-07T16:32:10;16.70;53.50
11617;DHT22;5864;52.998;9.068;2023-05-07T16:34:56;16.60;49.50
11617;DHT22;5864;52.998;9.068;2023-05-07T16:37:42;16.50;55.70
11617;DHT22;5864;52.998;9.068;2023-05-07T16:40:28;16.40;58.60
11617;DHT22;5864;52.998;9.068;2023-05-07T16:43:14;16.40;67.80
11617;DHT22;5864;52.998;9.068;2023-05-07T16:46:00;16.30;51.00
11617;DHT22;5864;52.998;9.068;2023-05-07T16:48:45;16.10;53.00
11617;DHT22;5864;52.998;9.068;2023-05-07T16:51:32;15.90;55.00
11617;DHT22;5864;52.998;9.068;2023-05-07T16:54:19;15.80;61.20
11617;DHT22;5864;52.998;9.068;2023-05-07T16:57:07;15.80;63.20
11617;DHT22;5864;52.998;9.068;2023-05-07T16:59:54;15.80;68.80
11617;DHT22;5864;52.998;9.068;2023-05-07T17:02:40;16.00;62.70
11617;DHT22;5864;52.998;9.068;2023-05-07T17:05:26;16.00;60.70
11617;DHT22;5864;52.998;9.068;2023-05-07T17:08:12;16.10;69.00
11617;DHT22;5864;52.998;9.068;2023-05-07T17:10:58;16.10;66.70
11617;DHT22;5864;52.998;9.068;2023-05-07T17:13:45;16.00;65.60
11617;DHT22;5864;52.998;9.068;2023-05-07T17:16:31;16.00;65.40
11617;DHT22;5864;52.998;9.068;2023-05-07T17:19:16;15.90;63.80
11617;DHT22;5864;52.998;9.068;2023-05-07T17:22:02;15.90;67.40
11617;DHT22;5864;52.998;9.068;2023-05-07T17:24:47;15.90;62.40
11617;DHT22;5864;52.998;9.068;2023-05-07T17:27:33;15.90;64.00
11617;DHT22;5864;52.998;9.068;2023-05-07T17:30:20;15.90;71.90
11617;DHT22;5864;52.998;9.068;2023-05-07T17:33:06;15.90;79.20
11617;DHT22;5864;52.998;9.068;2023-05-07T17:35:52;16.00;79.40
11617;DHT22;5864;52.998;9.068;2023-05-07T17:38:39;15.90;68.80
11617;DHT22;5864;52.998;9.068;2023-05-07T17:41:24;15.80;67.60
11617;DHT22;5864;52.998;9.068;2023-05-07T17:44:10;15.50;65.90
11617;DHT22;5864;52.998;9.068;2023-05-07T17:46:58;15.40;68.80
11617;DHT22;5864;52.998;9.068;2023-05-07T17:49:43;15.50;66.80
11617;DHT22;5864;52.998;9.068;2023-05-07T17:52:29;15.40;66.80
11617;DHT22;5864;52.998;9.068;2023-05-07T17:55:15;15.30;74.80
11617;DHT22;5864;52.998;9.068;2023-05-07T17:58:01;15.30;72.00
11617;DHT22;5864;52.998;9.068;2023-05-07T18:00:47;15.20;68.10
11617;DHT22;5864;52.998;9.068;2023-05-07T18:03:34;15.20;73.60